Time;durP1;ratioP1;P1;durP2;ratioP2;P2;SDS_P1;SDS_P2;PMS_P1;PMS_P2;Temp;Humidity;BMP_temperature;BMP_pressure;BME280_temperature;BME280_humidity;BME280_pressure;Samples;Min_cycle;Max_cycle;Signal;HPM_P1;HPM_P2
2022/03/15 00:01:07;;;;;;;8.30;4.10;;;8.10;77.80;;;;;;5104137;28;20539;-75
2022/03/15 00:03:33;;;;;;;6.93;3.90;;;8.10;77.70;;;;;;5108383;28;20171;-76
2022/03/15 00:05:59;;;;;;;11.17;4.80;;;8.00;77.60;;;;;;5109770;28;20229;-77
2022/03/15 00:08:26;;;;;;;8.97;4.90;;;7.90;77.80;;;;;;5081258;28;20421;-77
2022/03/15 00:10:57;;;;;;;10.70;5.20;;;7.90;78.00;;;;;;5099388;28;20482;-75
2022/03/15 00:13:23;;;;;;;7.63;4.33;;;7.80;78.10;;;;;;5081685;28;20474;-76
2022/03/15 00:15:49;;;;;;;6.97;3.87;;;7.70;78.60;;;;;;5099069;28;20541;-76
2022/03/15 00:18:15;;;;;;;10.90;4.60;;;7.80;78.70;;;;;;5090966;28;20795;-76
2022/03/15 00:20:41;;;;;;;9.60;4.70;;;7.90;78.70;;;;;;5091935;28;20437;-76
2022/03/15 00:23:07;;;;;;;9.10;4.80;;;7.90;78.70;;;;;;5091170;28;20187;-76
2022/03/15 00:25:36;;;;;;;10.50;4.23;;;7.80;78.70;;;;;;5091672;28;20621;-75
2022/03/15 00:28:02;;;;;;;13.67;4.57;;;7.80;78.70;;;;;;5090755;28;20988;-76
2022/03/15 00:30:27;;;;;;;8.30;4.60;;;7.80;79.00;;;;;;5091543;28;20469;-74
2022/03/15 00:32:53;;;;;;;11.83;5.50;;;7.80;78.90;;;;;;5090746;28;20183;-74
2022/03/15 00:35:20;;;;;;;10.37;5.00;;;7.80;78.90;;;;;;5091297;28;20175;-76
2022/03/15 00:37:51;;;;;;;15.27;5.33;;;7.80;78.70;;;;;;5090937;28;20187;-76
2022/03/15 00:40:18;;;;;;;9.60;4.70;;;7.90;78.60;;;;;;5080910;28;20441;-78
2022/03/15 00:42:50;;;;;;;11.17;5.10;;;7.90;78.60;;;;;;5091468;28;20486;-76
2022/03/15 00:45:16;;;;;;;9.73;4.63;;;7.80;78.70;;;;;;5084623;28;20795;-76
2022/03/15 00:47:42;;;;;;;5.47;4.07;;;7.80;79.00;;;;;;5091297;28;20961;-76
2022/03/15 00:50:08;;;;;;;8.67;4.30;;;7.80;78.90;;;;;;5092731;28;20443;-73
2022/03/15 00:52:34;;;;;;;5.83;3.60;;;7.80;78.70;;;;;;5082249;28;20437;-74
2022/03/15 00:55:01;;;;;;;6.87;3.93;;;7.80;78.70;;;;;;5092814;28;20441;-75
2022/03/15 00:57:26;;;;;;;9.93;4.60;;;7.80;78.70;;;;;;5090664;28;20578;-76
2022/03/15 00:59:52;;;;;;;8.33;4.33;;;7.80;78.70;;;;;;5090885;28;20448;-75
2022/03/15 01:02:18;;;;;;;7.77;3.50;;;7.80;78.70;;;;;;5090760;28;20179;-76
2022/03/15 01:04:44;;;;;;;6.87;3.77;;;7.80;78.70;;;;;;5083241;28;20176;-75
2022/03/15 01:07:12;;;;;;;8.20;3.70;;;7.70;79.00;;;;;;5091062;28;20256;-76
2022/03/15 01:09:39;;;;;;;5.47;3.60;;;7.70;79.00;;;;;;5091716;28;20186;-75
2022/03/15 01:12:05;;;;;;;10.23;5.00;;;7.80;79.00;;;;;;5087595;28;20413;-75
2022/03/15 01:14:31;;;;;;;8.40;5.17;;;7.80;79.20;;;;;;5072958;28;20930;-75
2022/03/15 01:16:57;;;;;;;7.70;4.47;;;7.70;79.50;;;;;;5086724;28;20462;-77
2022/03/15 01:19:26;;;;;;;6.33;4.10;;;7.70;79.50;;;;;;5073462;28;20189;-76
2022/03/15 01:21:52;;;;;;;5.70;3.70;;;7.60;79.50;;;;;;5078976;28;20539;-77
2022/03/15 01:24:18;;;;;;;6.93;4.10;;;7.60;79.90;;;;;;5091538;28;20425;-76
2022/03/15 01:26:44;;;;;;;6.50;4.40;;;7.70;79.70;;;;;;5092464;28;20417;-76
2022/03/15 01:29:10;;;;;;;7.20;3.97;;;7.70;79.30;;;;;;5094975;28;21996;-75
2022/03/15 01:31:36;;;;;;;10.40;4.63;;;7.70;79.20;;;;;;5095449;28;20532;-75
2022/03/15 01:34:02;;;;;;;9.60;5.20;;;7.70;79.50;;;;;;5099795;28;20557;-74
2022/03/15 01:36:27;;;;;;;6.40;4.27;;;7.60;79.60;;;;;;5097558;28;20203;-75
2022/03/15 01:38:53;;;;;;;7.97;4.60;;;7.60;79.70;;;;;;5105375;28;20187;-75
2022/03/15 01:41:21;;;;;;;9.43;4.93;;;7.60;79.90;;;;;;5095703;28;20211;-75
2022/03/15 01:43:47;;;;;;;10.50;4.20;;;7.60;79.90;;;;;;5095477;28;20175;-75
2022/03/15 01:46:14;;;;;;;11.40;4.77;;;7.50;80.20;;;;;;5094533;28;20593;-75
2022/03/15 01:48:40;;;;;;;6.63;3.80;;;7.50;80.20;;;;;;5096839;28;20524;-75
2022/03/15 01:51:07;;;;;;;7.43;4.60;;;7.50;80.80;;;;;;5077824;28;21311;-76
2022/03/15 01:53:33;;;;;;;6.47;4.30;;;7.50;80.80;;;;;;5094254;28;20477;-75
2022/03/15 01:56:02;;;;;;;8.43;3.97;;;7.60;80.30;;;;;;5093818;28;20947;-75
2022/03/15 01:58:28;;;;;;;7.13;4.17;;;7.60;80.00;;;;;;5094342;28;20556;-75
2022/03/15 02:00:54;;;;;;;5.00;4.00;;;7.60;80.00;;;;;;5091524;28;20461;-76
2022/03/15 02:03:20;;;;;;;10.80;4.80;;;7.60;79.90;;;;;;5085087;28;20444;-76
2022/03/15 02:05:46;;;;;;;9.57;4.83;;;7.50;80.00;;;;;;5094090;28;20266;-76
2022/03/15 02:08:14;;;;;;;11.70;5.23;;;7.50;80.30;;;;;;5093418;28;20907;-76
2022/03/15 02:10:41;;;;;;;8.50;4.40;;;7.50;80.50;;;;;;5078814;28;21028;-75
2022/03/15 02:13:08;;;;;;;6.10;3.80;;;7.50;80.50;;;;;;5092495;28;20985;-76
2022/03/15 02:15:34;;;;;;;8.17;4.47;;;7.60;80.50;;;;;;5092905;28;20609;-76
2022/03/15 02:17:59;;;;;;;11.80;3.93;;;7.60;80.30;;;;;;5093306;28;20449;-75
2022/03/15 02:20:26;;;;;;;7.03;4.60;;;7.60;80.20;;;;;;5091732;28;20195;-75
2022/03/15 02:22:52;;;;;;;7.07;4.27;;;7.60;80.20;;;;;;5090900;28;20237;-73
2022/03/15 02:25:18;;;;;;;8.90;4.77;;;7.50;80.20;;;;;;5093564;28;20429;-74
2022/03/15 02:27:44;;;;;;;8.87;4.27;;;7.40;80.50;;;;;;5094234;28;20496;-74
2022/03/15 02:30:11;;;;;;;7.40;4.53;;;7.30;80.80;;;;;;5082588;28;20455;-75
2022/03/15 02:32:38;;;;;;;7.67;4.53;;;7.30;80.90;;;;;;5093943;28;20688;-75
2022/03/15 02:35:05;;;;;;;8.17;4.93;;;7.30;81.10;;;;;;5093415;28;20562;-75
2022/03/15 02:37:31;;;;;;;10.77;5.10;;;7.30;81.10;;;;;;5093064;28;20503;-76
2022/03/15 02:39:58;;;;;;;14.27;5.13;;;7.30;80.80;;;;;;5093217;28;20477;-75
2022/03/15 02:42:23;;;;;;;11.63;6.10;;;7.30;81.20;;;;;;5097352;28;20451;-74
2022/03/15 02:44:49;;;;;;;6.43;4.17;;;7.30;81.20;;;;;;5096312;28;20749;-75
2022/03/15 02:47:15;;;;;;;7.33;4.30;;;7.30;80.90;;;;;;5098507;28;20488;-75
2022/03/15 02:49:41;;;;;;;9.10;4.40;;;7.40;80.90;;;;;;5097153;28;20260;-73
2022/03/15 02:52:07;;;;;;;6.43;4.60;;;7.40;80.90;;;;;;5093283;28;20236;-76
2022/03/15 02:54:33;;;;;;;7.33;4.10;;;7.40;81.10;;;;;;5093883;28;20187;-75
2022/03/15 02:57:01;;;;;;;12.90;5.17;;;7.40;81.10;;;;;;5093621;28;20477;-74
2022/03/15 02:59:28;;;;;;;15.93;4.73;;;7.50;80.80;;;;;;5093628;28;20183;-75
2022/03/15 03:01:54;;;;;;;10.73;4.60;;;7.50;80.50;;;;;;5093153;28;20937;-75
2022/03/15 03:04:21;;;;;;;6.60;4.07;;;7.50;80.80;;;;;;5094056;28;20501;-77
2022/03/15 03:06:47;;;;;;;5.20;3.90;;;7.40;80.90;;;;;;5086212;28;20444;-75
2022/03/15 03:09:13;;;;;;;7.73;4.20;;;7.40;81.20;;;;;;5100418;28;20425;-76
2022/03/15 03:11:39;;;;;;;12.00;5.30;;;7.50;80.90;;;;;;5098663;28;20437;-76
2022/03/15 03:14:06;;;;;;;7.67;4.57;;;7.50;80.60;;;;;;5095638;28;20772;-75
2022/03/15 03:16:34;;;;;;;7.03;4.07;;;7.50;80.60;;;;;;5092547;28;20822;-77
2022/03/15 03:19:01;;;;;;;10.47;4.07;;;7.50;80.80;;;;;;5092511;28;20436;-77
2022/03/15 03:21:28;;;;;;;9.40;4.43;;;7.50;80.60;;;;;;5092759;28;20447;-76
2022/03/15 03:23:56;;;;;;;10.03;4.60;;;7.50;80.80;;;;;;5083016;28;20425;-77
2022/03/15 03:26:23;;;;;;;6.63;4.87;;;7.60;80.60;;;;;;5095455;28;20429;-75
2022/03/15 03:28:50;;;;;;;8.27;4.77;;;7.50;80.50;;;;;;5095064;28;20457;-76
2022/03/15 03:31:16;;;;;;;8.83;4.07;;;7.50;80.50;;;;;;5094221;28;20437;-75
2022/03/15 03:33:42;;;;;;;9.60;5.20;;;7.50;80.60;;;;;;5080608;28;20444;-74
2022/03/15 03:36:09;;;;;;;8.83;4.50;;;7.50;80.80;;;;;;5095957;28;20609;-76
2022/03/15 03:38:36;;;;;;;8.20;4.70;;;7.50;80.80;;;;;;5095891;28;20864;-75
2022/03/15 03:41:03;;;;;;;7.00;4.10;;;7.60;80.50;;;;;;5095431;28;20451;-75
2022/03/15 03:43:29;;;;;;;7.73;4.73;;;7.60;80.30;;;;;;5095547;28;20417;-75
2022/03/15 03:45:56;;;;;;;6.47;3.93;;;7.60;80.20;;;;;;5095911;28;20421;-75
2022/03/15 03:48:23;;;;;;;9.97;4.83;;;7.50;80.30;;;;;;5095251;28;20456;-73
2022/03/15 03:50:50;;;;;;;10.17;4.73;;;7.50;80.30;;;;;;5096479;28;20441;-75
2022/03/15 03:53:16;;;;;;;7.27;4.40;;;7.60;80.20;;;;;;5096752;28;20445;-73
2022/03/15 03:55:42;;;;;;;7.40;4.53;;;7.60;80.00;;;;;;5093749;28;20429;-74
2022/03/15 03:58:07;;;;;;;7.93;4.27;;;7.60;80.00;;;;;;5102113;28;20413;-75
2022/03/15 04:00:34;;;;;;;10.33;4.87;;;7.60;80.00;;;;;;5106620;28;20199;-74
2022/03/15 04:03:00;;;;;;;14.10;5.60;;;7.50;80.20;;;;;;5098084;28;20183;-75
2022/03/15 04:05:30;;;;;;;9.83;5.20;;;7.40;80.20;;;;;;5092481;28;20910;-75
2022/03/15 04:07:58;;;;;;;7.53;4.60;;;7.30;80.60;;;;;;5091337;28;20516;-75
2022/03/15 04:10:27;;;;;;;6.30;4.00;;;7.30;80.90;;;;;;5077616;28;20525;-75
2022/03/15 04:12:54;;;;;;;10.63;4.90;;;7.30;81.20;;;;;;5075880;28;20433;-75
2022/03/15 04:15:20;;;;;;;6.37;4.50;;;7.20;81.50;;;;;;5075337;28;20429;-76
2022/03/15 04:17:46;;;;;;;8.20;4.80;;;7.20;81.90;;;;;;5075545;28;20453;-76
2022/03/15 04:20:11;;;;;;;10.20;4.97;;;7.10;81.90;;;;;;5093100;28;20451;-75
2022/03/15 04:22:37;;;;;;;8.10;4.40;;;7.10;82.20;;;;;;5093379;28;20466;-75
2022/03/15 04:25:03;;;;;;;6.90;4.27;;;7.20;82.20;;;;;;5093609;28;20421;-76
2022/03/15 04:27:29;;;;;;;7.70;4.87;;;7.20;82.20;;;;;;5091351;28;20210;-75
2022/03/15 04:29:55;;;;;;;10.20;4.83;;;7.20;82.50;;;;;;5082742;28;20946;-75
2022/03/15 04:32:21;;;;;;;8.57;4.77;;;7.10;82.70;;;;;;5074376;28;20191;-75
2022/03/15 04:34:46;;;;;;;6.63;4.43;;;7.10;83.10;;;;;;5078328;28;20650;-74
2022/03/15 04:37:12;;;;;;;12.23;5.10;;;7.20;83.00;;;;;;5091899;28;20469;-75
2022/03/15 04:39:38;;;;;;;12.77;5.43;;;7.20;82.50;;;;;;5096036;28;20202;-74
2022/03/15 04:42:05;;;;;;;11.60;4.87;;;7.30;82.20;;;;;;5085401;28;20200;-76
2022/03/15 04:44:31;;;;;;;11.40;5.10;;;7.30;81.70;;;;;;5098160;28;20175;-75
2022/03/15 04:46:56;;;;;;;8.67;4.90;;;7.30;81.50;;;;;;5094724;28;20431;-75
2022/03/15 04:49:22;;;;;;;11.50;4.87;;;7.30;81.70;;;;;;5097267;28;20512;-75
2022/03/15 04:51:48;;;;;;;8.10;4.97;;;7.30;81.80;;;;;;5098302;28;20274;-75
2022/03/15 04:54:14;;;;;;;7.60;4.33;;;7.20;81.90;;;;;;5097480;28;20187;-76
2022/03/15 04:56:40;;;;;;;9.90;4.97;;;7.20;82.20;;;;;;5092407;28;20222;-74
2022/03/15 04:59:05;;;;;;;9.37;4.73;;;7.20;82.40;;;;;;5092226;28;20983;-74
2022/03/15 05:01:31;;;;;;;8.97;4.30;;;7.20;82.70;;;;;;5091413;28;20203;-74
2022/03/15 05:03:57;;;;;;;5.00;3.47;;;7.30;82.50;;;;;;5100028;28;20187;-74
2022/03/15 05:06:23;;;;;;;9.20;4.33;;;7.30;82.10;;;;;;5095418;28;20516;-75
2022/03/15 05:08:48;;;;;;;6.30;3.63;;;7.30;81.90;;;;;;5093932;28;20183;-75
2022/03/15 05:11:18;;;;;;;11.10;4.20;;;7.30;81.50;;;;;;5095052;28;20203;-74
2022/03/15 05:13:46;;;;;;;6.33;4.20;;;7.30;81.10;;;;;;5097782;28;20179;-73
2022/03/15 05:16:22;;;;;;;8.87;4.30;;;7.30;80.90;;;;;;5097000;28;20462;-75
2022/03/15 05:18:53;;;;;;;6.03;3.73;;;7.30;81.10;;;;;;5097470;28;20416;-74
2022/03/15 05:21:24;;;;;;;8.37;4.07;;;7.30;81.10;;;;;;5096808;28;20886;-76
2022/03/15 05:23:51;;;;;;;10.73;4.90;;;7.30;81.40;;;;;;5098495;28;20974;-76
2022/03/15 05:26:17;;;;;;;8.03;4.60;;;7.20;81.80;;;;;;5100455;28;20421;-75
2022/03/15 05:28:44;;;;;;;11.40;4.60;;;7.10;82.20;;;;;;5086611;28;20793;-75
2022/03/15 05:31:11;;;;;;;12.13;6.00;;;7.10;82.50;;;;;;5094812;28;20459;-75
2022/03/15 05:33:37;;;;;;;10.20;5.17;;;7.20;82.20;;;;;;5095619;28;20433;-75
2022/03/15 05:36:03;;;;;;;6.83;4.50;;;7.30;82.10;;;;;;5096810;28;20465;-75
2022/03/15 05:38:29;;;;;;;10.60;4.00;;;7.20;81.90;;;;;;5094805;28;20524;-74
2022/03/15 05:40:55;;;;;;;6.77;4.30;;;7.30;80.90;;;;;;5091449;28;20433;-75
2022/03/15 05:43:22;;;;;;;7.87;3.63;;;7.20;80.90;;;;;;5090873;28;21040;-75
2022/03/15 05:45:49;;;;;;;6.10;4.10;;;7.30;80.80;;;;;;5090957;28;20199;-75
2022/03/15 05:48:15;;;;;;;7.20;4.40;;;7.30;80.50;;;;;;5090396;28;20486;-75
2022/03/15 05:50:41;;;;;;;11.13;4.67;;;7.30;81.10;;;;;;5092404;28;20437;-77
2022/03/15 05:53:07;;;;;;;9.70;4.93;;;7.20;81.20;;;;;;5091874;28;20190;-76
2022/03/15 05:55:34;;;;;;;10.63;4.10;;;7.30;81.70;;;;;;5092279;28;20183;-76
2022/03/15 05:58:00;;;;;;;9.30;4.50;;;7.10;81.70;;;;;;5092777;28;20509;-76
2022/03/15 06:00:27;;;;;;;8.17;4.40;;;7.10;81.90;;;;;;5092199;28;20437;-77
2022/03/15 06:02:53;;;;;;;13.53;4.53;;;7.20;81.80;;;;;;5092865;28;20428;-76
2022/03/15 06:05:19;;;;;;;9.57;4.73;;;7.20;82.10;;;;;;5070756;28;20433;-76
2022/03/15 06:07:47;;;;;;;7.83;4.13;;;7.30;82.10;;;;;;5091649;28;20409;-76
2022/03/15 06:10:15;;;;;;;9.67;5.00;;;7.30;82.10;;;;;;5090998;28;20490;-77
2022/03/15 06:12:42;;;;;;;9.67;3.97;;;7.40;81.50;;;;;;5079612;28;20439;-76
2022/03/15 06:15:08;;;;;;;7.03;4.13;;;7.50;80.80;;;;;;5095751;28;20794;-76
2022/03/15 06:18:05;;;;;;;8.97;4.13;;;7.50;80.30;;;;;;5076060;28;20565;-76
2022/03/15 06:20:31;;;;;;;4.97;3.67;;;7.60;80.20;;;;;;5054420;28;20454;-77
2022/03/15 06:22:58;;;;;;;10.37;3.90;;;7.70;80.00;;;;;;5059759;28;20481;-76
2022/03/15 06:25:25;;;;;;;9.43;4.30;;;7.70;80.00;;;;;;5065596;28;20535;-76
2022/03/15 06:27:51;;;;;;;7.30;4.93;;;7.70;79.70;;;;;;5069385;28;20430;-75
2022/03/15 06:30:17;;;;;;;22.13;7.30;;;7.70;80.00;;;;;;5065725;28;20454;-77
2022/03/15 06:32:43;;;;;;;13.20;6.23;;;7.70;79.70;;;;;;5058424;28;20430;-76
2022/03/15 06:35:10;;;;;;;12.00;5.27;;;7.70;79.70;;;;;;5054824;28;20473;-76
2022/03/15 06:37:45;;;;;;;10.80;5.30;;;7.80;79.70;;;;;;5056148;28;20945;-76
2022/03/15 06:40:12;;;;;;;7.93;4.77;;;7.90;78.90;;;;;;5056652;28;20548;-76
2022/03/15 06:42:41;;;;;;;12.80;5.70;;;8.00;78.40;;;;;;5056383;28;20916;-76
2022/03/15 06:45:08;;;;;;;10.17;4.80;;;8.10;77.80;;;;;;5057450;28;20423;-76
2022/03/15 06:47:37;;;;;;;7.67;4.60;;;8.10;77.70;;;;;;5041082;28;20622;-76
2022/03/15 06:50:08;;;;;;;10.90;5.70;;;8.20;77.40;;;;;;5052670;28;20467;-76
2022/03/15 06:52:34;;;;;;;10.63;5.03;;;8.30;77.10;;;;;;5059291;28;20913;-75
2022/03/15 06:55:00;;;;;;;7.67;4.73;;;8.40;76.70;;;;;;5053211;28;20977;-77
2022/03/15 06:57:26;;;;;;;10.13;4.50;;;8.40;76.40;;;;;;5083676;28;20500;-77
2022/03/15 06:59:56;;;;;;;9.03;4.87;;;8.50;75.90;;;;;;5094977;28;20451;-76
2022/03/15 07:02:21;;;;;;;8.20;5.07;;;8.60;75.40;;;;;;5094973;28;20186;-76
2022/03/15 07:04:47;;;;;;;7.50;4.70;;;8.70;75.20;;;;;;5093476;28;20425;-78
2022/03/15 07:07:14;;;;;;;9.20;5.30;;;8.80;75.10;;;;;;5094369;28;20444;-77
2022/03/15 07:09:41;;;;;;;11.97;5.77;;;8.80;74.90;;;;;;5093395;28;20428;-75
2022/03/15 07:12:07;;;;;;;12.63;5.80;;;8.80;74.90;;;;;;5090330;28;20495;-77
2022/03/15 07:14:33;;;;;;;12.97;5.30;;;8.90;74.60;;;;;;5093803;28;20792;-77
2022/03/15 07:16:59;;;;;;;13.80;6.47;;;8.90;74.00;;;;;;5093640;28;20473;-77
2022/03/15 07:19:26;;;;;;;12.33;5.70;;;9.00;74.00;;;;;;5093096;28;20613;-77
2022/03/15 07:21:52;;;;;;;7.80;5.30;;;9.00;73.60;;;;;;5093620;28;20542;-77
2022/03/15 07:24:18;;;;;;;14.47;5.00;;;9.00;73.30;;;;;;5080193;28;20924;-76
2022/03/15 07:26:44;;;;;;;9.27;5.00;;;8.90;73.20;;;;;;5093749;28;20597;-77
2022/03/15 07:29:09;;;;;;;13.23;5.40;;;9.00;73.20;;;;;;5076273;28;20956;-77
2022/03/15 07:31:35;;;;;;;9.40;5.40;;;9.10;73.00;;;;;;5093671;28;20294;-75
2022/03/15 07:34:01;;;;;;;13.30;5.73;;;9.10;72.60;;;;;;5097428;28;20183;-75
2022/03/15 07:36:27;;;;;;;10.73;5.50;;;9.00;72.70;;;;;;5096382;28;20599;-77
2022/03/15 07:38:52;;;;;;;6.20;4.80;;;9.10;72.70;;;;;;5088249;28;20187;-77
2022/03/15 07:41:21;;;;;;;9.97;5.30;;;9.10;72.60;;;;;;5098634;28;20290;-76
2022/03/15 07:43:47;;;;;;;13.03;5.83;;;9.10;72.60;;;;;;5080568;28;20268;-78
2022/03/15 07:46:13;;;;;;;12.97;5.30;;;9.10;72.60;;;;;;5095065;28;20545;-76
2022/03/15 07:48:39;;;;;;;14.37;5.37;;;9.20;72.30;;;;;;5101253;28;20538;-77
2022/03/15 07:51:05;;;;;;;8.83;6.10;;;9.20;72.00;;;;;;5103957;28;20445;-78
2022/03/15 07:53:31;;;;;;;9.17;5.50;;;9.20;72.30;;;;;;5099301;28;20183;-79
2022/03/15 07:55:59;;;;;;;12.43;5.50;;;9.30;72.10;;;;;;5094510;28;20657;-77
2022/03/15 07:58:25;;;;;;;7.33;5.07;;;9.30;72.00;;;;;;5092955;28;20259;-77
2022/03/15 08:00:54;;;;;;;8.60;5.07;;;9.50;71.40;;;;;;5091912;28;20469;-78
2022/03/15 08:03:22;;;;;;;9.57;4.80;;;9.50;71.30;;;;;;5092370;28;20171;-78
2022/03/15 08:05:48;;;;;;;15.20;5.47;;;9.40;71.40;;;;;;5091978;28;20443;-78
2022/03/15 08:08:15;;;;;;;16.70;5.03;;;9.50;71.70;;;;;;5091884;28;20419;-77
2022/03/15 08:10:41;;;;;;;13.80;5.60;;;9.60;71.10;;;;;;5091643;28;20479;-79
2022/03/15 08:13:07;;;;;;;12.00;5.30;;;9.70;70.50;;;;;;5092368;28;20771;-78
2022/03/15 08:15:33;;;;;;;8.30;4.63;;;9.90;70.40;;;;;;5092053;28;20433;-77
2022/03/15 08:17:59;;;;;;;9.80;5.47;;;10.00;69.50;;;;;;5091835;28;20277;-79
2022/03/15 08:20:32;;;;;;;11.00;5.23;;;10.10;68.60;;;;;;5092787;28;21133;-78
2022/03/15 08:23:01;;;;;;;13.30;5.13;;;10.20;68.00;;;;;;5093385;28;20413;-78
2022/03/15 08:25:27;;;;;;;7.17;4.30;;;10.10;68.30;;;;;;5094694;28;20425;-77
2022/03/15 08:27:53;;;;;;;7.87;4.80;;;10.20;68.20;;;;;;5074731;28;20432;-78
2022/03/15 08:30:20;;;;;;;6.80;4.20;;;10.40;67.20;;;;;;5091957;28;20469;-77
2022/03/15 08:32:46;;;;;;;9.43;4.40;;;10.40;66.70;;;;;;5074100;28;20471;-78
2022/03/15 08:35:12;;;;;;;10.13;4.33;;;10.60;66.30;;;;;;5081694;28;20425;-78
2022/03/15 08:37:39;;;;;;;11.30;4.00;;;10.60;65.60;;;;;;5092559;28;20518;-78
2022/03/15 08:40:06;;;;;;;7.33;4.13;;;10.70;65.10;;;;;;5092309;28;20445;-79
2022/03/15 08:42:32;;;;;;;6.27;3.80;;;10.60;65.30;;;;;;5091832;28;21254;-78
2022/03/15 08:44:58;;;;;;;9.70;4.00;;;10.70;65.10;;;;;;5092321;28;20413;-79
2022/03/15 08:47:24;;;;;;;7.27;4.00;;;10.70;65.30;;;;;;5092637;28;20425;-79
2022/03/15 08:49:50;;;;;;;7.63;3.80;;;10.80;65.00;;;;;;5092012;28;20440;-78
2022/03/15 08:52:16;;;;;;;4.87;3.43;;;11.00;64.80;;;;;;5091976;28;20711;-76
2022/03/15 08:54:42;;;;;;;7.40;4.23;;;11.10;64.40;;;;;;5092456;28;20425;-78
2022/03/15 08:57:08;;;;;;;6.03;3.67;;;11.30;64.20;;;;;;5093700;28;20461;-77
2022/03/15 08:59:34;;;;;;;6.07;3.90;;;11.40;63.80;;;;;;5095078;28;20191;-77
2022/03/15 09:02:01;;;;;;;6.60;4.57;;;11.50;63.20;;;;;;5092804;28;20409;-78
2022/03/15 09:04:27;;;;;;;5.33;3.83;;;11.60;63.40;;;;;;5092497;28;20409;-78
2022/03/15 09:06:53;;;;;;;14.67;4.23;;;11.60;63.10;;;;;;5092346;28;20973;-76
2022/03/15 09:09:21;;;;;;;7.57;3.80;;;11.60;63.20;;;;;;5093209;28;20425;-78
2022/03/15 09:11:48;;;;;;;5.53;3.57;;;11.60;63.70;;;;;;5093439;28;20203;-77
2022/03/15 09:14:16;;;;;;;8.73;3.90;;;11.60;63.80;;;;;;5096465;28;20406;-78
2022/03/15 09:16:42;;;;;;;10.80;3.30;;;11.60;64.50;;;;;;5100154;28;20484;-79
2022/03/15 09:19:09;;;;;;;6.80;3.30;;;11.50;65.60;;;;;;5096832;28;20417;-78
2022/03/15 09:21:36;;;;;;;5.87;3.27;;;11.40;67.60;;;;;;5095934;28;20437;-78
2022/03/15 09:24:02;;;;;;;6.43;3.73;;;11.40;69.20;;;;;;5095185;28;20444;-77
2022/03/15 09:26:27;;;;;;;6.57;3.73;;;11.20;71.10;;;;;;5095716;28;20421;-77
2022/03/15 09:28:53;;;;;;;6.37;3.63;;;11.10;72.70;;;;;;5095945;28;20429;-78
2022/03/15 09:31:20;;;;;;;5.20;3.53;;;11.10;74.20;;;;;;5097130;28;20203;-79
2022/03/15 09:33:46;;;;;;;6.07;2.93;;;10.90;75.40;;;;;;5099203;28;20193;-78
2022/03/15 09:36:13;;;;;;;6.00;3.50;;;10.90;76.70;;;;;;5098405;28;20468;-78
2022/03/15 09:38:39;;;;;;;5.63;3.60;;;10.80;77.30;;;;;;5095808;28;20474;-79
2022/03/15 09:41:07;;;;;;;7.50;3.57;;;10.80;78.00;;;;;;5092874;28;20440;-79
2022/03/15 09:43:39;;;;;;;6.57;3.73;;;10.80;78.90;;;;;;5093464;28;20421;-79
2022/03/15 09:46:06;;;;;;;5.90;3.40;;;10.80;79.60;;;;;;5092896;28;20449;-78
2022/03/15 09:48:32;;;;;;;3.37;2.70;;;10.90;79.60;;;;;;5081506;28;20445;-80
2022/03/15 09:50:59;;;;;;;4.90;3.17;;;11.00;79.60;;;;;;5080401;28;20455;-79
2022/03/15 09:53:25;;;;;;;6.60;3.60;;;11.10;79.60;;;;;;5096275;28;20432;-78
2022/03/15 09:55:51;;;;;;;4.83;3.00;;;11.10;79.50;;;;;;5078260;28;20431;-78
2022/03/15 09:58:21;;;;;;;6.60;3.60;;;11.10;79.50;;;;;;5078731;28;20935;-78
2022/03/15 10:00:52;;;;;;;6.10;3.80;;;11.10;80.00;;;;;;5096483;28;20256;-78
2022/03/15 10:03:19;;;;;;;5.20;3.53;;;11.10;80.20;;;;;;5096469;28;20508;-78
2022/03/15 10:05:45;;;;;;;11.17;3.53;;;11.20;80.00;;;;;;5096558;28;20929;-79
2022/03/15 10:08:15;;;;;;;8.80;3.83;;;11.20;79.60;;;;;;5102875;28;20826;-79
2022/03/15 10:10:41;;;;;;;8.27;3.37;;;11.20;79.60;;;;;;5096131;28;20452;-79
2022/03/15 10:13:08;;;;;;;5.43;3.17;;;11.20;79.70;;;;;;5092447;28;20424;-78
2022/03/15 10:15:34;;;;;;;6.20;3.30;;;11.20;79.70;;;;;;5095432;28;20519;-79
2022/03/15 10:18:04;;;;;;;6.23;3.10;;;11.20;79.90;;;;;;5095305;28;20500;-78
2022/03/15 10:20:42;;;;;;;5.63;3.10;;;11.30;80.00;;;;;;5094646;28;20202;-77
2022/03/15 10:23:10;;;;;;;7.73;2.93;;;11.30;79.90;;;;;;5094264;28;20417;-78
2022/03/15 10:25:37;;;;;;;5.17;3.57;;;11.40;79.50;;;;;;5095316;28;20492;-78
2022/03/15 10:28:08;;;;;;;6.70;3.13;;;11.40;79.50;;;;;;5095249;28;20878;-77
2022/03/15 10:30:35;;;;;;;5.73;3.00;;;11.60;79.20;;;;;;5095638;28;20471;-77
2022/03/15 10:33:02;;;;;;;5.30;3.10;;;11.60;78.70;;;;;;5094804;28;20980;-76
2022/03/15 10:35:31;;;;;;;5.23;3.13;;;11.70;78.60;;;;;;5095089;28;20923;-77
2022/03/15 10:37:58;;;;;;;10.77;4.73;;;11.70;78.60;;;;;;5095247;28;20532;-78
2022/03/15 10:40:44;;;;;;;9.07;4.50;;;11.70;78.10;;;;;;5095017;28;20446;-78
2022/03/15 10:43:15;;;;;;;7.37;4.87;;;11.70;78.40;;;;;;5077594;28;20413;-78
2022/03/15 10:45:56;;;;;;;6.07;4.27;;;11.60;79.00;;;;;;5092500;28;20417;-79
2022/03/15 10:48:25;;;;;;;6.40;3.90;;;11.60;79.70;;;;;;5110802;28;20440;-79
2022/03/15 10:50:57;;;;;;;8.97;5.00;;;11.60;80.00;;;;;;5109552;28;20433;-79
2022/03/15 10:53:25;;;;;;;6.00;4.10;;;11.80;80.20;;;;;;5112773;28;20412;-78
2022/03/15 10:56:08;;;;;;;9.27;4.17;;;11.80;80.20;;;;;;5106990;28;20467;-76
2022/03/15 10:58:34;;;;;;;7.83;4.80;;;11.80;80.20;;;;;;5094560;28;20445;-76
2022/03/15 11:01:00;;;;;;;8.10;4.97;;;11.80;80.50;;;;;;5095153;28;20480;-77
2022/03/15 11:03:29;;;;;;;12.27;5.60;;;11.70;81.10;;;;;;5094916;28;20449;-78
2022/03/15 11:06:02;;;;;;;13.40;6.17;;;11.80;81.70;;;;;;5074845;28;20429;-77
2022/03/15 11:08:28;;;;;;;13.60;7.57;;;11.80;81.70;;;;;;5071023;28;20417;-78
2022/03/15 11:10:54;;;;;;;15.10;7.40;;;11.70;80.90;;;;;;5076719;28;20451;-76
2022/03/15 11:13:27;;;;;;;12.83;7.07;;;11.60;80.50;;;;;;5095599;28;20179;-78
2022/03/15 11:15:55;;;;;;;16.93;8.57;;;11.40;81.90;;;;;;5095048;28;20406;-78
2022/03/15 11:18:21;;;;;;;11.73;5.90;;;11.30;83.00;;;;;;5095187;28;20418;-77
2022/03/15 11:20:48;;;;;;;9.60;6.60;;;11.40;83.80;;;;;;5095161;28;20791;-77
2022/03/15 11:23:16;;;;;;;10.33;5.33;;;11.40;84.60;;;;;;5095753;28;20445;-78
2022/03/15 11:25:48;;;;;;;11.20;6.77;;;11.30;85.00;;;;;;5077078;28;20421;-78
2022/03/15 11:28:23;;;;;;;10.63;5.80;;;11.30;85.70;;;;;;5095225;28;20426;-77
2022/03/15 11:30:51;;;;;;;9.50;6.13;;;11.40;86.20;;;;;;5079350;28;20444;-78
2022/03/15 11:33:17;;;;;;;10.80;5.80;;;11.30;86.50;;;;;;5088882;28;20427;-78
2022/03/15 11:35:43;;;;;;;10.27;6.23;;;11.30;86.50;;;;;;5097618;28;20445;-79
2022/03/15 11:38:12;;;;;;;10.23;6.20;;;11.30;86.50;;;;;;5099528;28;20453;-77
2022/03/15 11:40:38;;;;;;;10.57;5.80;;;11.30;86.80;;;;;;5101556;28;20541;-76
2022/03/15 11:43:25;;;;;;;13.30;6.00;;;11.30;87.00;;;;;;5096423;28;20562;-77
2022/03/15 11:46:06;;;;;;;10.33;6.07;;;11.30;87.40;;;;;;5095493;28;20437;-77
2022/03/15 11:48:56;;;;;;;11.30;6.43;;;11.30;87.40;;;;;;5081941;28;21004;-77
2022/03/15 11:51:45;;;;;;;13.00;7.60;;;11.20;87.40;;;;;;5093864;28;20461;-77
2022/03/15 11:54:30;;;;;;;11.87;6.73;;;11.20;87.60;;;;;;5077905;28;20957;-77
2022/03/15 11:57:01;;;;;;;13.53;7.23;;;11.10;87.80;;;;;;5096576;28;20457;-75
2022/03/15 11:59:47;;;;;;;11.47;6.77;;;11.10;87.60;;;;;;5097170;28;20409;-76
2022/03/15 12:02:13;;;;;;;11.63;7.03;;;11.00;88.00;;;;;;5097088;28;20417;-78
2022/03/15 12:04:44;;;;;;;10.80;6.80;;;11.00;88.60;;;;;;5095153;28;20486;-77
2022/03/15 12:07:11;;;;;;;16.63;7.20;;;11.10;88.70;;;;;;5095418;28;21144;-76
2022/03/15 12:09:47;;;;;;;12.50;7.53;;;11.10;88.90;;;;;;5095579;28;20421;-77
2022/03/15 12:12:14;;;;;;;12.90;7.07;;;11.20;89.00;;;;;;5080528;28;20413;-78
2022/03/15 12:14:45;;;;;;;9.53;6.07;;;11.20;89.30;;;;;;5094187;28;20445;-78
2022/03/15 12:17:12;;;;;;;12.63;6.20;;;11.30;89.30;;;;;;5093058;28;20499;-77
2022/03/15 12:19:50;;;;;;;12.83;7.20;;;11.30;89.00;;;;;;5093970;28;20417;-77
2022/03/15 12:22:37;;;;;;;11.57;6.40;;;11.30;88.40;;;;;;5075647;28;20558;-77
2022/03/15 12:25:06;;;;;;;12.47;7.40;;;11.30;88.10;;;;;;5096443;28;20451;-77
2022/03/15 12:27:51;;;;;;;8.50;5.80;;;11.20;88.30;;;;;;5090821;28;20485;-76
2022/03/15 12:30:28;;;;;;;14.10;7.27;;;11.20;87.60;;;;;;5097640;28;20517;-77
2022/03/15 12:32:56;;;;;;;11.87;6.40;;;11.10;87.30;;;;;;5083157;28;20440;-77
2022/03/15 12:35:25;;;;;;;10.50;7.00;;;11.10;87.40;;;;;;5109504;28;20621;-75
2022/03/15 12:37:51;;;;;;;11.37;6.00;;;11.10;87.60;;;;;;5108933;28;20468;-77
2022/03/15 12:40:17;;;;;;;11.87;6.50;;;11.00;87.60;;;;;;5089924;28;20468;-77
2022/03/15 12:42:53;;;;;;;11.40;6.90;;;11.00;87.60;;;;;;5087498;28;20424;-77
2022/03/15 12:45:20;;;;;;;10.80;6.30;;;11.00;86.90;;;;;;5081549;28;20425;-76
2022/03/15 12:47:49;;;;;;;12.50;6.80;;;10.90;87.10;;;;;;5112314;28;20427;-76
2022/03/15 12:50:15;;;;;;;15.20;6.50;;;10.90;86.60;;;;;;5093828;28;20456;-77
2022/03/15 12:52:45;;;;;;;10.50;6.03;;;10.70;86.50;;;;;;5100492;28;20416;-77